sensor_id;sensor_type;location;lat;lon;timestamp;temperature;humidity
983;DHT22;480;48.124;11.578;2022-09-24T00:02:05;13.20;99.90
983;DHT22;480;48.124;11.578;2022-09-24T00:04:35;13.00;99.90
983;DHT22;480;48.124;11.578;2022-09-24T00:07:02;13.10;99.90
983;DHT22;480;48.124;11.578;2022-09-24T00:09:29;13.20;99.90
983;DHT22;480;48.124;11.578;2022-09-24T00:11:56;13.20;99.90
983;DHT22;480;48.124;11.578;2022-09-24T00:14:25;13.20;99.90
983;DHT22;480;48.124;11.578;2022-09-24T00:16:53;13.20;99.90
983;DHT22;480;48.124;11.578;2022-09-24T00:19:20;13.30;99.90
983;DHT22;480;48.124;11.578;2022-09-24T00:21:47;13.30;99.90
983;DHT22;480;48.124;11.578;2022-09-24T00:24:15;13.40;99.90
983;DHT22;480;48.124;11.578;2022-09-24T00:26:56;13.20;99.90
983;DHT22;480;48.124;11.578;2022-09-24T00:29:24;13.10;99.90
983;DHT22;480;48.124;11.578;2022-09-24T00:31:53;13.20;99.90
983;DHT22;480;48.124;11.578;2022-09-24T00:34:20;13.30;99.90
983;DHT22;480;48.124;11.578;2022-09-24T00:36:47;13.20;99.90
983;DHT22;480;48.124;11.578;2022-09-24T00:39:14;13.30;99.90
983;DHT22;480;48.124;11.578;2022-09-24T00:41:42;13.20;99.90
983;DHT22;480;48.124;11.578;2022-09-24T00:47:27;13.30;99.90
983;DHT22;480;48.124;11.578;2022-09-24T00:50:01;13.40;99.90
983;DHT22;480;48.124;11.578;2022-09-24T00:52:31;13.40;99.90
983;DHT22;480;48.124;11.578;2022-09-24T00:54:58;13.40;99.90
983;DHT22;480;48.124;11.578;2022-09-24T00:57:26;13.40;99.90
983;DHT22;480;48.124;11.578;2022-09-24T00:59:53;13.40;99.90
983;DHT22;480;48.124;11.578;2022-09-24T01:02:23;13.50;99.90
983;DHT22;480;48.124;11.578;2022-09-24T01:04:51;13.50;99.90
983;DHT22;480;48.124;11.578;2022-09-24T01:07:19;13.50;99.90
983;DHT22;480;48.124;11.578;2022-09-24T01:09:46;13.50;99.90
983;DHT22;480;48.124;11.578;2022-09-24T01:12:18;13.50;99.90
983;DHT22;480;48.124;11.578;2022-09-24T01:15:01;13.50;99.90
983;DHT22;480;48.124;11.578;2022-09-24T01:17:37;13.50;99.90
983;DHT22;480;48.124;11.578;2022-09-24T01:20:35;13.50;99.90
983;DHT22;480;48.124;11.578;2022-09-24T01:26:09;13.50;99.90
983;DHT22;480;48.124;11.578;2022-09-24T01:28:56;13.50;99.90
983;DHT22;480;48.124;11.578;2022-09-24T01:31:34;13.40;99.90
983;DHT22;480;48.124;11.578;2022-09-24T01:34:07;13.40;99.90
983;DHT22;480;48.124;11.578;2022-09-24T01:36:38;13.40;99.90
983;DHT22;480;48.124;11.578;2022-09-24T01:39:07;13.40;99.90
983;DHT22;480;48.124;11.578;2022-09-24T01:41:34;13.40;99.90
983;DHT22;480;48.124;11.578;2022-09-24T01:44:03;13.30;99.90
983;DHT22;480;48.124;11.578;2022-09-24T01:46:36;13.40;99.90
983;DHT22;480;48.124;11.578;2022-09-24T01:49:03;13.30;99.90
983;DHT22;480;48.124;11.578;2022-09-24T01:51:34;13.30;99.90
983;DHT22;480;48.124;11.578;2022-09-24T01:54:08;13.30;99.90
983;DHT22;480;48.124;11.578;2022-09-24T01:56:38;13.30;99.90
983;DHT22;480;48.124;11.578;2022-09-24T01:59:11;13.30;99.90
983;DHT22;480;48.124;11.578;2022-09-24T02:01:48;13.30;99.90
983;DHT22;480;48.124;11.578;2022-09-24T02:04:18;13.30;99.90
983;DHT22;480;48.124;11.578;2022-09-24T02:06:52;13.30;99.90
983;DHT22;480;48.124;11.578;2022-09-24T02:09:31;13.30;99.90
983;DHT22;480;48.124;11.578;2022-09-24T02:12:02;13.30;99.90
983;DHT22;480;48.124;11.578;2022-09-24T02:14:35;13.30;99.90
983;DHT22;480;48.124;11.578;2022-09-24T02:17:06;13.30;99.90
983;DHT22;480;48.124;11.578;2022-09-24T02:19:35;13.30;99.90
983;DHT22;480;48.124;11.578;2022-09-24T02:22:06;13.30;99.90
983;DHT22;480;48.124;11.578;2022-09-24T02:24:39;13.20;99.90
983;DHT22;480;48.124;11.578;2022-09-24T02:27:09;13.30;99.90
983;DHT22;480;48.124;11.578;2022-09-24T02:29:36;13.30;99.90
983;DHT22;480;48.124;11.578;2022-09-24T02:32:05;13.20;99.90
983;DHT22;480;48.124;11.578;2022-09-24T02:34:36;13.30;99.90
983;DHT22;480;48.124;11.578;2022-09-24T02:37:05;13.10;99.90
983;DHT22;480;48.124;11.578;2022-09-24T02:39:32;13.10;99.90
983;DHT22;480;48.124;11.578;2022-09-24T02:42:02;13.10;99.90
983;DHT22;480;48.124;11.578;2022-09-24T02:44:30;13.10;99.90
983;DHT22;480;48.124;11.578;2022-09-24T02:46:57;13.10;99.90
983;DHT22;480;48.124;11.578;2022-09-24T02:49:26;13.20;99.90
983;DHT22;480;48.124;11.578;2022-09-24T02:51:53;13.30;99.90
983;DHT22;480;48.124;11.578;2022-09-24T02:54:20;13.20;99.90
983;DHT22;480;48.124;11.578;2022-09-24T02:56:48;13.20;99.90
983;DHT22;480;48.124;11.578;2022-09-24T02:59:15;13.20;99.90
983;DHT22;480;48.124;11.578;2022-09-24T03:01:42;13.30;99.90
983;DHT22;480;48.124;11.578;2022-09-24T03:04:09;13.30;99.90
983;DHT22;480;48.124;11.578;2022-09-24T03:06:38;13.20;99.90
983;DHT22;480;48.124;11.578;2022-09-24T03:09:05;13.20;99.90
983;DHT22;480;48.124;11.578;2022-09-24T03:11:32;13.20;99.90
983;DHT22;480;48.124;11.578;2022-09-24T03:14:00;13.20;99.90
983;DHT22;480;48.124;11.578;2022-09-24T03:16:27;13.20;99.90
983;DHT22;480;48.124;11.578;2022-09-24T03:18:54;13.20;99.90
983;DHT22;480;48.124;11.578;2022-09-24T03:21:21;13.20;99.90
983;DHT22;480;48.124;11.578;2022-09-24T03:23:50;13.10;99.90
983;DHT22;480;48.124;11.578;2022-09-24T03:26:17;13.10;99.90
983;DHT22;480;48.124;11.578;2022-09-24T03:28:44;13.10;99.90
983;DHT22;480;48.124;11.578;2022-09-24T03:31:11;13.10;99.90
983;DHT22;480;48.124;11.578;2022-09-24T03:33:40;13.20;99.90
983;DHT22;480;48.124;11.578;2022-09-24T03:36:10;13.20;99.90
983;DHT22;480;48.124;11.578;2022-09-24T03:38:38;13.20;99.90
983;DHT22;480;48.124;11.578;2022-09-24T03:41:07;13.20;99.90
983;DHT22;480;48.124;11.578;2022-09-24T03:43:35;13.20;99.90
983;DHT22;480;48.124;11.578;2022-09-24T03:46:03;13.30;99.90
983;DHT22;480;48.124;11.578;2022-09-24T03:48:32;13.30;99.90
983;DHT22;480;48.124;11.578;2022-09-24T03:51:03;13.40;99.90
983;DHT22;480;48.124;11.578;2022-09-24T03:53:30;13.50;99.90
983;DHT22;480;48.124;11.578;2022-09-24T03:55:57;13.50;99.90
983;DHT22;480;48.124;11.578;2022-09-24T03:58:28;13.50;99.90
983;DHT22;480;48.124;11.578;2022-09-24T04:00:56;13.40;99.90
983;DHT22;480;48.124;11.578;2022-09-24T04:03:24;13.30;99.90
983;DHT22;480;48.124;11.578;2022-09-24T04:05:52;13.40;99.90
983;DHT22;480;48.124;11.578;2022-09-24T04:08:19;13.40;99.90
983;DHT22;480;48.124;11.578;2022-09-24T04:10:49;13.50;99.90
983;DHT22;480;48.124;11.578;2022-09-24T04:13:17;13.50;99.90
983;DHT22;480;48.124;11.578;2022-09-24T04:15:45;13.50;99.90
983;DHT22;480;48.124;11.578;2022-09-24T04:18:13;13.50;99.90
983;DHT22;480;48.124;11.578;2022-09-24T04:20:40;13.60;99.90
983;DHT22;480;48.124;11.578;2022-09-24T04:23:09;13.60;99.90
983;DHT22;480;48.124;11.578;2022-09-24T04:25:36;13.60;99.90
983;DHT22;480;48.124;11.578;2022-09-24T04:28:06;13.70;99.90
983;DHT22;480;48.124;11.578;2022-09-24T04:30:34;13.70;99.90
983;DHT22;480;48.124;11.578;2022-09-24T04:33:02;13.70;99.90
983;DHT22;480;48.124;11.578;2022-09-24T04:35:31;13.70;99.90
983;DHT22;480;48.124;11.578;2022-09-24T04:38:00;13.70;99.90
983;DHT22;480;48.124;11.578;2022-09-24T04:40:27;13.60;99.90
983;DHT22;480;48.124;11.578;2022-09-24T04:42:54;13.70;99.90
983;DHT22;480;48.124;11.578;2022-09-24T04:45:21;13.80;99.90
983;DHT22;480;48.124;11.578;2022-09-24T04:47:50;13.80;99.90
983;DHT22;480;48.124;11.578;2022-09-24T04:50:22;13.80;99.90
983;DHT22;480;48.124;11.578;2022-09-24T04:52:49;13.80;99.90
983;DHT22;480;48.124;11.578;2022-09-24T04:55:16;13.80;99.90
983;DHT22;480;48.124;11.578;2022-09-24T04:57:45;13.90;99.90
983;DHT22;480;48.124;11.578;2022-09-24T05:00:14;13.90;99.90
983;DHT22;480;48.124;11.578;2022-09-24T05:02:42;13.90;99.90
983;DHT22;480;48.124;11.578;2022-09-24T05:05:10;14.00;99.90
983;DHT22;480;48.124;11.578;2022-09-24T05:07:40;14.00;99.90
983;DHT22;480;48.124;11.578;2022-09-24T05:10:09;14.00;99.90
983;DHT22;480;48.124;11.578;2022-09-24T05:12:36;14.00;99.90
983;DHT22;480;48.124;11.578;2022-09-24T05:15:06;14.00;99.90
983;DHT22;480;48.124;11.578;2022-09-24T05:17:36;14.00;99.90
983;DHT22;480;48.124;11.578;2022-09-24T05:20:03;14.00;99.90
983;DHT22;480;48.124;11.578;2022-09-24T05:22:31;14.00;99.90
983;DHT22;480;48.124;11.578;2022-09-24T05:24:59;14.00;99.90
983;DHT22;480;48.124;11.578;2022-09-24T05:27:26;14.00;99.90
983;DHT22;480;48.124;11.578;2022-09-24T05:29:52;14.00;99.90
983;DHT22;480;48.124;11.578;2022-09-24T05:32:19;14.00;99.90
983;DHT22;480;48.124;11.578;2022-09-24T05:34:46;14.00;99.90
983;DHT22;480;48.124;11.578;2022-09-24T05:37:15;14.10;99.90
983;DHT22;480;48.124;11.578;2022-09-24T05:39:42;14.10;99.90
983;DHT22;480;48.124;11.578;2022-09-24T05:42:11;14.20;99.90
983;DHT22;480;48.124;11.578;2022-09-24T05:44:39;14.20;99.90
983;DHT22;480;48.124;11.578;2022-09-24T05:47:08;14.20;99.90
983;DHT22;480;48.124;11.578;2022-09-24T05:49:35;14.20;99.90
983;DHT22;480;48.124;11.578;2022-09-24T05:52:02;14.30;99.90
983;DHT22;480;48.124;11.578;2022-09-24T05:54:29;14.30;99.90
983;DHT22;480;48.124;11.578;2022-09-24T05:56:57;14.40;99.90
983;DHT22;480;48.124;11.578;2022-09-24T05:59:26;14.40;99.90
983;DHT22;480;48.124;11.578;2022-09-24T06:01:52;14.50;99.90
983;DHT22;480;48.124;11.578;2022-09-24T06:04:20;14.60;99.90
983;DHT22;480;48.124;11.578;2022-09-24T06:06:47;14.60;99.90
983;DHT22;480;48.124;11.578;2022-09-24T06:09:14;14.70;99.90
983;DHT22;480;48.124;11.578;2022-09-24T06:11:41;14.80;99.90
983;DHT22;480;48.124;11.578;2022-09-24T06:14:08;14.80;99.90
983;DHT22;480;48.124;11.578;2022-09-24T06:16:38;14.80;99.90
983;DHT22;480;48.124;11.578;2022-09-24T06:19:05;14.80;99.90
983;DHT22;480;48.124;11.578;2022-09-24T06:21:32;14.80;99.90
983;DHT22;480;48.124;11.578;2022-09-24T06:23:59;14.80;99.90
983;DHT22;480;48.124;11.578;2022-09-24T06:26:26;14.90;99.90
983;DHT22;480;48.124;11.578;2022-09-24T06:28:53;14.90;99.90
983;DHT22;480;48.124;11.578;2022-09-24T06:31:20;15.00;99.90
983;DHT22;480;48.124;11.578;2022-09-24T06:33:49;15.00;99.90
983;DHT22;480;48.124;11.578;2022-09-24T06:36:16;14.90;99.90
983;DHT22;480;48.124;11.578;2022-09-24T06:38:42;15.00;99.90
983;DHT22;480;48.124;11.578;2022-09-24T06:41:10;15.10;99.90
983;DHT22;480;48.124;11.578;2022-09-24T06:43:37;15.00;99.90
983;DHT22;480;48.124;11.578;2022-09-24T06:46:04;15.00;99.90
983;DHT22;480;48.124;11.578;2022-09-24T06:48:31;15.00;99.90
983;DHT22;480;48.124;11.578;2022-09-24T06:51:03;15.00;99.90
983;DHT22;480;48.124;11.578;2022-09-24T06:53:30;15.00;99.90
983;DHT22;480;48.124;11.578;2022-09-24T06:55:57;14.90;99.90
983;DHT22;480;48.124;11.578;2022-09-24T06:58:25;14.80;99.90
983;DHT22;480;48.124;11.578;2022-09-24T07:00:56;14.80;99.90
983;DHT22;480;48.124;11.578;2022-09-24T07:03:24;14.80;99.90
983;DHT22;480;48.124;11.578;2022-09-24T07:05:51;14.90;99.90
983;DHT22;480;48.124;11.578;2022-09-24T07:08:20;14.90;99.90
983;DHT22;480;48.124;11.578;2022-09-24T07:10:48;14.90;99.90
983;DHT22;480;48.124;11.578;2022-09-24T07:13:17;14.90;99.90
983;DHT22;480;48.124;11.578;2022-09-24T07:15:46;14.90;99.90
983;DHT22;480;48.124;11.578;2022-09-24T07:18:13;14.90;99.90
983;DHT22;480;48.124;11.578;2022-09-24T07:20:41;15.00;99.90
983;DHT22;480;48.124;11.578;2022-09-24T07:23:09;15.10;99.90
983;DHT22;480;48.124;11.578;2022-09-24T07:25:38;15.10;99.90
983;DHT22;480;48.124;11.578;2022-09-24T07:28:07;15.10;99.90
983;DHT22;480;48.124;11.578;2022-09-24T07:30:35;15.10;99.90
983;DHT22;480;48.124;11.578;2022-09-24T07:33:03;15.10;99.90
983;DHT22;480;48.124;11.578;2022-09-24T07:35:30;15.20;99.90
983;DHT22;480;48.124;11.578;2022-09-24T07:37:58;15.20;99.90
983;DHT22;480;48.124;11.578;2022-09-24T07:40:26;15.10;99.90
983;DHT22;480;48.124;11.578;2022-09-24T07:42:54;15.10;99.90
983;DHT22;480;48.124;11.578;2022-09-24T07:45:25;15.30;99.90
983;DHT22;480;48.124;11.578;2022-09-24T07:47:57;15.40;99.90
983;DHT22;480;48.124;11.578;2022-09-24T07:50:25;15.40;99.90
983;DHT22;480;48.124;11.578;2022-09-24T07:52:53;15.50;99.90
983;DHT22;480;48.124;11.578;2022-09-24T07:55:20;15.50;99.90
983;DHT22;480;48.124;11.578;2022-09-24T07:57:48;15.50;99.90
983;DHT22;480;48.124;11.578;2022-09-24T08:00:19;15.50;99.90
983;DHT22;480;48.124;11.578;2022-09-24T08:02:47;15.50;99.90
983;DHT22;480;48.124;11.578;2022-09-24T08:05:14;15.60;99.90
983;DHT22;480;48.124;11.578;2022-09-24T08:07:49;15.60;99.90
983;DHT22;480;48.124;11.578;2022-09-24T08:10:16;15.60;99.90
983;DHT22;480;48.124;11.578;2022-09-24T08:12:43;15.50;99.90
983;DHT22;480;48.124;11.578;2022-09-24T08:15:10;15.50;99.90
983;DHT22;480;48.124;11.578;2022-09-24T08:17:38;15.40;99.90
983;DHT22;480;48.124;11.578;2022-09-24T08:20:06;15.40;99.90
983;DHT22;480;48.124;11.578;2022-09-24T08:22:33;15.30;99.90
983;DHT22;480;48.124;11.578;2022-09-24T08:25:00;15.30;99.90
983;DHT22;480;48.124;11.578;2022-09-24T08:27:28;15.30;99.90
983;DHT22;480;48.124;11.578;2022-09-24T08:29:57;15.20;99.90
983;DHT22;480;48.124;11.578;2022-09-24T08:32:25;15.30;99.90
983;DHT22;480;48.124;11.578;2022-09-24T08:34:53;15.40;99.90
983;DHT22;480;48.124;11.578;2022-09-24T08:37:20;15.50;99.90
983;DHT22;480;48.124;11.578;2022-09-24T08:39:47;15.60;99.90
983;DHT22;480;48.124;11.578;2022-09-24T08:42:24;15.60;99.90
983;DHT22;480;48.124;11.578;2022-09-24T08:44:55;15.70;99.90
983;DHT22;480;48.124;11.578;2022-09-24T08:47:45;15.70;99.90
983;DHT22;480;48.124;11.578;2022-09-24T08:50:18;15.70;99.90
983;DHT22;480;48.124;11.578;2022-09-24T08:52:58;15.80;99.90
983;DHT22;480;48.124;11.578;2022-09-24T08:55:32;15.70;99.90
983;DHT22;480;48.124;11.578;2022-09-24T09:00:49;15.90;99.90
983;DHT22;480;48.124;11.578;2022-09-24T09:03:25;16.10;99.90
983;DHT22;480;48.124;11.578;2022-09-24T09:06:00;16.20;99.90
983;DHT22;480;48.124;11.578;2022-09-24T09:08:35;16.30;99.90
983;DHT22;480;48.124;11.578;2022-09-24T09:11:08;16.40;99.90
983;DHT22;480;48.124;11.578;2022-09-24T09:13:40;16.40;99.90
983;DHT22;480;48.124;11.578;2022-09-24T09:16:17;16.50;99.90
983;DHT22;480;48.124;11.578;2022-09-24T09:18:49;16.30;99.90
983;DHT22;480;48.124;11.578;2022-09-24T09:21:25;16.30;99.90
983;DHT22;480;48.124;11.578;2022-09-24T09:23:55;16.50;99.90
983;DHT22;480;48.124;11.578;2022-09-24T09:26:24;16.50;99.90
983;DHT22;480;48.124;11.578;2022-09-24T09:28:52;16.60;99.90
983;DHT22;480;48.124;11.578;2022-09-24T09:31:28;16.60;99.90
983;DHT22;480;48.124;11.578;2022-09-24T09:34:12;16.60;99.90
983;DHT22;480;48.124;11.578;2022-09-24T09:36:58;16.60;99.90
983;DHT22;480;48.124;11.578;2022-09-24T09:39:34;16.50;99.90
983;DHT22;480;48.124;11.578;2022-09-24T09:44:59;16.40;99.90
983;DHT22;480;48.124;11.578;2022-09-24T09:47:38;16.50;99.90
983;DHT22;480;48.124;11.578;2022-09-24T09:50:16;16.60;99.90
983;DHT22;480;48.124;11.578;2022-09-24T09:52:46;16.60;99.90
983;DHT22;480;48.124;11.578;2022-09-24T09:55:21;16.70;99.90
983;DHT22;480;48.124;11.578;2022-09-24T09:57:49;16.50;99.90
983;DHT22;480;48.124;11.578;2022-09-24T10:00:24;16.50;99.90
983;DHT22;480;48.124;11.578;2022-09-24T10:02:52;16.50;99.90
983;DHT22;480;48.124;11.578;2022-09-24T10:05:21;16.40;99.90
983;DHT22;480;48.124;11.578;2022-09-24T10:07:54;16.20;99.90
983;DHT22;480;48.124;11.578;2022-09-24T10:10:24;16.00;99.90
983;DHT22;480;48.124;11.578;2022-09-24T10:12:52;16.00;99.90
983;DHT22;480;48.124;11.578;2022-09-24T10:15:22;16.10;99.90
983;DHT22;480;48.124;11.578;2022-09-24T10:17:52;16.10;99.90
983;DHT22;480;48.124;11.578;2022-09-24T10:20:22;16.00;99.90
983;DHT22;480;48.124;11.578;2022-09-24T10:22:52;15.90;99.90
983;DHT22;480;48.124;11.578;2022-09-24T10:25:23;15.80;99.90
983;DHT22;480;48.124;11.578;2022-09-24T10:27:51;15.90;99.90
983;DHT22;480;48.124;11.578;2022-09-24T10:30:20;15.90;99.90
983;DHT22;480;48.124;11.578;2022-09-24T10:32:59;16.00;99.90
983;DHT22;480;48.124;11.578;2022-09-24T10:35:32;16.10;99.90
983;DHT22;480;48.124;11.578;2022-09-24T10:38:01;16.10;99.90
983;DHT22;480;48.124;11.578;2022-09-24T10:40:37;16.00;99.90
983;DHT22;480;48.124;11.578;2022-09-24T10:43:05;15.90;99.90
983;DHT22;480;48.124;11.578;2022-09-24T10:48:28;16.10;99.90
983;DHT22;480;48.124;11.578;2022-09-24T10:51:05;16.20;99.90
983;DHT22;480;48.124;11.578;2022-09-24T10:53:45;16.00;99.90
983;DHT22;480;48.124;11.578;2022-09-24T10:56:22;16.00;99.90
983;DHT22;480;48.124;11.578;2022-09-24T11:02:08;16.00;99.90
983;DHT22;480;48.124;11.578;2022-09-24T11:04:53;16.00;99.90
983;DHT22;480;48.124;11.578;2022-09-24T11:07:40;15.90;99.90
983;DHT22;480;48.124;11.578;2022-09-24T11:10:17;15.80;99.90
983;DHT22;480;48.124;11.578;2022-09-24T11:13:01;15.90;99.90
983;DHT22;480;48.124;11.578;2022-09-24T11:15:47;15.90;99.90
983;DHT22;480;48.124;11.578;2022-09-24T11:18:29;16.00;99.90
983;DHT22;480;48.124;11.578;2022-09-24T11:21:04;16.10;99.90
983;DHT22;480;48.124;11.578;2022-09-24T11:24:06;16.10;99.90
983;DHT22;480;48.124;11.578;2022-09-24T11:26:46;16.20;99.90
983;DHT22;480;48.124;11.578;2022-09-24T11:29:33;16.40;99.90
983;DHT22;480;48.124;11.578;2022-09-24T11:32:10;16.40;99.90
983;DHT22;480;48.124;11.578;2022-09-24T11:34:51;16.40;99.90
983;DHT22;480;48.124;11.578;2022-09-24T11:37:31;16.50;99.90
983;DHT22;480;48.124;11.578;2022-09-24T11:40:23;16.70;99.90
983;DHT22;480;48.124;11.578;2022-09-24T11:43:04;16.80;99.90
983;DHT22;480;48.124;11.578;2022-09-24T11:45:50;16.80;99.90
983;DHT22;480;48.124;11.578;2022-09-24T11:48:39;16.90;99.90
983;DHT22;480;48.124;11.578;2022-09-24T11:51:21;16.80;99.90
983;DHT22;480;48.124;11.578;2022-09-24T11:53:55;16.80;99.90
983;DHT22;480;48.124;11.578;2022-09-24T11:56:28;16.80;99.90
983;DHT22;480;48.124;11.578;2022-09-24T11:59:01;16.70;99.90
983;DHT22;480;48.124;11.578;2022-09-24T12:01:36;16.80;99.90
983;DHT22;480;48.124;11.578;2022-09-24T12:04:10;16.80;99.90
983;DHT22;480;48.124;11.578;2022-09-24T12:06:42;16.90;99.90
983;DHT22;480;48.124;11.578;2022-09-24T12:09:16;16.70;99.90
983;DHT22;480;48.124;11.578;2022-09-24T12:11:47;16.60;99.90
983;DHT22;480;48.124;11.578;2022-09-24T12:14:18;16.50;99.90
983;DHT22;480;48.124;11.578;2022-09-24T12:16:54;16.50;99.90
983;DHT22;480;48.124;11.578;2022-09-24T12:19:25;16.40;99.90
983;DHT22;480;48.124;11.578;2022-09-24T12:21:55;16.40;99.90
983;DHT22;480;48.124;11.578;2022-09-24T12:24:27;16.40;99.90
983;DHT22;480;48.124;11.578;2022-09-24T12:26:58;16.40;99.90
983;DHT22;480;48.124;11.578;2022-09-24T12:29:36;16.40;99.90
983;DHT22;480;48.124;11.578;2022-09-24T12:32:29;16.30;99.90
983;DHT22;480;48.124;11.578;2022-09-24T12:35:21;16.50;99.90
983;DHT22;480;48.124;11.578;2022-09-24T12:37:51;16.70;99.90
983;DHT22;480;48.124;11.578;2022-09-24T12:40:54;16.80;99.90
983;DHT22;480;48.124;11.578;2022-09-24T12:43:33;16.80;99.90
983;DHT22;480;48.124;11.578;2022-09-24T12:46:04;17.00;99.90
983;DHT22;480;48.124;11.578;2022-09-24T12:48:36;17.10;99.90
983;DHT22;480;48.124;11.578;2022-09-24T12:51:05;17.20;99.90
983;DHT22;480;48.124;11.578;2022-09-24T12:53:36;17.40;99.90
983;DHT22;480;48.124;11.578;2022-09-24T12:56:05;17.50;99.90
983;DHT22;480;48.124;11.578;2022-09-24T12:58:38;17.60;99.90
983;DHT22;480;48.124;11.578;2022-09-24T13:01:13;17.60;99.90
983;DHT22;480;48.124;11.578;2022-09-24T13:04:04;17.50;99.90
983;DHT22;480;48.124;11.578;2022-09-24T13:06:33;17.30;99.90
983;DHT22;480;48.124;11.578;2022-09-24T13:09:01;17.30;99.90
983;DHT22;480;48.124;11.578;2022-09-24T13:11:30;17.40;99.90
983;DHT22;480;48.124;11.578;2022-09-24T13:14:16;17.40;99.90
983;DHT22;480;48.124;11.578;2022-09-24T13:16:48;17.40;99.90
983;DHT22;480;48.124;11.578;2022-09-24T13:19:33;17.30;99.90
983;DHT22;480;48.124;11.578;2022-09-24T13:22:02;17.30;99.90
983;DHT22;480;48.124;11.578;2022-09-24T13:24:32;17.30;99.90
983;DHT22;480;48.124;11.578;2022-09-24T13:27:23;17.40;99.90
983;DHT22;480;48.124;11.578;2022-09-24T13:30:05;17.40;99.90
983;DHT22;480;48.124;11.578;2022-09-24T13:32:44;17.40;99.90
983;DHT22;480;48.124;11.578;2022-09-24T13:35:17;17.50;99.90
983;DHT22;480;48.124;11.578;2022-09-24T13:37:50;17.60;99.90
983;DHT22;480;48.124;11.578;2022-09-24T13:40:22;17.80;99.90
983;DHT22;480;48.124;11.578;2022-09-24T13:42:55;17.90;99.90
983;DHT22;480;48.124;11.578;2022-09-24T13:45:26;17.90;99.90
983;DHT22;480;48.124;11.578;2022-09-24T13:47:56;18.00;99.90
983;DHT22;480;48.124;11.578;2022-09-24T13:50:28;17.80;99.90
983;DHT22;480;48.124;11.578;2022-09-24T13:52:58;17.70;99.90
983;DHT22;480;48.124;11.578;2022-09-24T13:55:31;17.60;99.90
983;DHT22;480;48.124;11.578;2022-09-24T13:57:59;17.60;99.90
983;DHT22;480;48.124;11.578;2022-09-24T14:00:27;17.80;99.90
983;DHT22;480;48.124;11.578;2022-09-24T14:03:00;17.90;99.90
983;DHT22;480;48.124;11.578;2022-09-24T14:05:33;17.90;99.90
983;DHT22;480;48.124;11.578;2022-09-24T14:08:03;17.90;99.90
983;DHT22;480;48.124;11.578;2022-09-24T14:10:32;17.80;99.90
983;DHT22;480;48.124;11.578;2022-09-24T14:13:15;17.60;99.90
983;DHT22;480;48.124;11.578;2022-09-24T14:15:52;17.50;99.90
983;DHT22;480;48.124;11.578;2022-09-24T14:18:19;17.50;99.90
983;DHT22;480;48.124;11.578;2022-09-24T14:20:52;17.60;99.90
983;DHT22;480;48.124;11.578;2022-09-24T14:23:23;17.70;99.90
983;DHT22;480;48.124;11.578;2022-09-24T14:25:52;17.70;99.90
983;DHT22;480;48.124;11.578;2022-09-24T14:28:21;17.70;99.90
983;DHT22;480;48.124;11.578;2022-09-24T14:30:51;17.70;99.90
983;DHT22;480;48.124;11.578;2022-09-24T14:33:21;17.50;99.90
983;DHT22;480;48.124;11.578;2022-09-24T14:35:53;17.60;99.90
983;DHT22;480;48.124;11.578;2022-09-24T14:38:22;17.60;99.90
983;DHT22;480;48.124;11.578;2022-09-24T14:40:53;17.60;99.90
983;DHT22;480;48.124;11.578;2022-09-24T14:43:23;17.70;99.90
983;DHT22;480;48.124;11.578;2022-09-24T14:46:00;17.70;99.90
983;DHT22;480;48.124;11.578;2022-09-24T14:48:30;17.70;99.90
983;DHT22;480;48.124;11.578;2022-09-24T14:50:59;17.70;99.90
983;DHT22;480;48.124;11.578;2022-09-24T14:53:27;17.70;99.90
983;DHT22;480;48.124;11.578;2022-09-24T14:55:55;17.70;99.90
983;DHT22;480;48.124;11.578;2022-09-24T14:58:35;17.70;99.90
983;DHT22;480;48.124;11.578;2022-09-24T15:01:04;17.80;99.90
983;DHT22;480;48.124;11.578;2022-09-24T15:03:37;17.80;99.90
983;DHT22;480;48.124;11.578;2022-09-24T15:06:15;17.70;99.90
983;DHT22;480;48.124;11.578;2022-09-24T15:08:43;17.60;99.90
983;DHT22;480;48.124;11.578;2022-09-24T15:11:17;17.70;99.90
983;DHT22;480;48.124;11.578;2022-09-24T15:13:45;17.70;99.90
983;DHT22;480;48.124;11.578;2022-09-24T15:16:19;17.50;99.90
983;DHT22;480;48.124;11.578;2022-09-24T15:18:56;17.40;99.90
983;DHT22;480;48.124;11.578;2022-09-24T15:21:25;17.40;99.90
983;DHT22;480;48.124;11.578;2022-09-24T15:23:53;17.40;99.90
983;DHT22;480;48.124;11.578;2022-09-24T15:26:28;17.30;99.90
983;DHT22;480;48.124;11.578;2022-09-24T15:28:56;17.30;99.90
983;DHT22;480;48.124;11.578;2022-09-24T15:31:23;17.20;99.90
983;DHT22;480;48.124;11.578;2022-09-24T15:33:50;17.20;99.90
983;DHT22;480;48.124;11.578;2022-09-24T15:36:17;17.30;99.90
983;DHT22;480;48.124;11.578;2022-09-24T15:38:47;17.30;99.90
983;DHT22;480;48.124;11.578;2022-09-24T15:41:15;17.40;99.90
983;DHT22;480;48.124;11.578;2022-09-24T15:43:42;17.30;99.90
983;DHT22;480;48.124;11.578;2022-09-24T15:46:09;17.30;99.90
983;DHT22;480;48.124;11.578;2022-09-24T15:48:36;17.30;99.90
983;DHT22;480;48.124;11.578;2022-09-24T15:51:04;17.30;99.90
983;DHT22;480;48.124;11.578;2022-09-24T15:53:31;17.30;99.90
983;DHT22;480;48.124;11.578;2022-09-24T15:56:00;17.30;99.90
983;DHT22;480;48.124;11.578;2022-09-24T15:58:28;17.10;99.90
983;DHT22;480;48.124;11.578;2022-09-24T16:00:55;17.10;99.90
983;DHT22;480;48.124;11.578;2022-09-24T16:03:24;17.10;99.90
983;DHT22;480;48.124;11.578;2022-09-24T16:05:52;17.10;99.90
983;DHT22;480;48.124;11.578;2022-09-24T16:08:19;17.10;99.90
983;DHT22;480;48.124;11.578;2022-09-24T16:10:47;17.10;99.90
983;DHT22;480;48.124;11.578;2022-09-24T16:13:15;16.80;99.90
983;DHT22;480;48.124;11.578;2022-09-24T16:15:42;16.60;99.90
983;DHT22;480;48.124;11.578;2022-09-24T16:18:12;16.50;99.90
983;DHT22;480;48.124;11.578;2022-09-24T16:20:40;16.50;99.90
983;DHT22;480;48.124;11.578;2022-09-24T16:23:12;16.40;99.90
983;DHT22;480;48.124;11.578;2022-09-24T16:25:40;16.40;99.90
983;DHT22;480;48.124;11.578;2022-09-24T16:28:08;16.50;99.90
983;DHT22;480;48.124;11.578;2022-09-24T16:30:36;16.30;99.90
983;DHT22;480;48.124;11.578;2022-09-24T16:33:04;16.30;99.90
983;DHT22;480;48.124;11.578;2022-09-24T16:35:31;16.40;99.90
983;DHT22;480;48.124;11.578;2022-09-24T16:37:58;16.50;99.90
983;DHT22;480;48.124;11.578;2022-09-24T16:40:25;16.50;99.90
983;DHT22;480;48.124;11.578;2022-09-24T16:42:52;16.50;99.90
983;DHT22;480;48.124;11.578;2022-09-24T16:45:19;16.50;99.90
983;DHT22;480;48.124;11.578;2022-09-24T16:47:47;16.60;99.90
983;DHT22;480;48.124;11.578;2022-09-24T16:50:15;16.60;99.90
983;DHT22;480;48.124;11.578;2022-09-24T16:52:42;16.60;99.90
983;DHT22;480;48.124;11.578;2022-09-24T16:55:10;16.60;99.90
983;DHT22;480;48.124;11.578;2022-09-24T16:57:37;16.60;99.90
983;DHT22;480;48.124;11.578;2022-09-24T17:00:05;16.60;99.90